Time;durP1;ratioP1;P1;durP2;ratioP2;P2;SDS_P1;SDS_P2;PMS_P1;PMS_P2;Temp;Humidity;BMP_temperature;BMP_pressure;BME280_temperature;BME280_humidity;BME280_pressure;Samples;Min_cycle;Max_cycle;Signal;HPM_P1;HPM_P2
2021/11/18 00:00:51;;;;;;;19.95;14.82;;;6.60;82.20;;;4.46;94.30;97050.97;4952102;28;20035;-69
2021/11/18 00:03:17;;;;;;;16.80;13.48;;;6.50;82.30;;;4.46;95.26;97053.59;4947275;28;20031;-67
2021/11/18 00:05:43;;;;;;;15.38;11.32;;;6.50;82.20;;;4.43;94.68;97048.63;4955168;28;20042;-67
2021/11/18 00:08:09;;;;;;;14.35;10.70;;;6.50;82.10;;;4.43;95.30;97059.88;4949163;28;20047;-67
2021/11/18 00:10:37;;;;;;;14.70;11.57;;;6.40;82.20;;;4.41;94.26;97064.38;4942730;28;20422;-67
2021/11/18 00:13:04;;;;;;;13.38;10.55;;;6.40;82.30;;;4.40;94.91;97059.31;4953407;28;20054;-68
2021/11/18 00:15:30;;;;;;;15.23;11.65;;;6.40;82.50;;;4.39;95.16;97063.69;4932809;29;20035;-67
2021/11/18 00:17:58;;;;;;;14.10;10.57;;;6.30;82.40;;;4.37;94.63;97062.16;4923264;28;20130;-67
2021/11/18 00:20:29;;;;;;;14.07;10.68;;;6.30;82.50;;;4.37;94.86;97063.00;4933130;28;20035;-67
2021/11/18 00:22:55;;;;;;;15.85;11.93;;;6.40;82.50;;;4.37;95.21;97070.00;4951908;28;20111;-67
2021/11/18 00:25:21;;;;;;;14.40;10.35;;;6.40;82.60;;;4.36;94.40;97063.13;4968272;28;20557;-67
2021/11/18 00:27:46;;;;;;;13.93;11.15;;;6.30;82.40;;;4.35;95.43;97066.69;4920838;29;20035;-68
2021/11/18 00:30:12;;;;;;;15.50;11.02;;;6.30;82.50;;;4.34;95.26;97067.63;4926767;28;20118;-68
2021/11/18 00:32:39;;;;;;;14.82;10.65;;;6.30;82.40;;;4.33;95.35;97063.38;4919439;29;20118;-68
2021/11/18 00:35:06;;;;;;;17.38;11.73;;;6.30;82.60;;;4.34;94.48;97059.81;4931304;28;20042;-68
2021/11/18 00:37:31;;;;;;;15.23;9.95;;;6.30;82.50;;;4.34;94.79;97054.63;4947329;28;20042;-68
2021/11/18 00:39:57;;;;;;;13.55;10.60;;;6.40;82.30;;;4.36;94.22;97056.13;4920272;29;20502;-68
2021/11/18 00:42:23;;;;;;;13.45;9.98;;;6.40;82.30;;;4.35;94.77;97057.09;4964408;28;20039;-68
2021/11/18 00:44:52;;;;;;;14.52;10.43;;;6.30;81.90;;;4.36;95.07;97063.13;4960264;28;20515;-67
2021/11/18 00:47:18;;;;;;;14.65;10.57;;;6.40;82.00;;;4.36;94.09;97063.13;4937088;28;20119;-67
2021/11/18 00:49:43;;;;;;;13.00;10.60;;;6.40;81.80;;;4.38;94.84;97071.63;4964234;28;20043;-67
2021/11/18 00:52:09;;;;;;;12.68;9.82;;;6.30;81.90;;;4.37;93.68;97075.19;4940822;28;20043;-67
2021/11/18 00:54:35;;;;;;;13.90;10.10;;;6.30;81.70;;;4.36;94.79;97076.16;4935681;28;20044;-68
2021/11/18 00:57:01;;;;;;;15.10;10.23;;;6.30;82.00;;;4.36;93.71;97079.56;4919844;28;20035;-68
2021/11/18 00:59:29;;;;;;;13.93;10.38;;;6.30;81.80;;;4.34;94.21;97068.47;4964826;28;20126;-67
2021/11/18 01:01:54;;;;;;;14.05;10.13;;;6.30;81.70;;;4.22;93.49;97052.06;4947817;28;20175;-67
2021/11/18 01:04:20;;;;;;;14.00;10.65;;;6.20;81.40;;;4.33;93.65;97059.00;4959780;28;20032;-67
2021/11/18 01:06:47;;;;;;;13.10;9.65;;;6.30;81.80;;;4.32;94.14;97066.94;4952912;23;20054;-62
2021/11/18 01:09:13;;;;;;;13.65;9.98;;;6.20;81.90;;;4.32;93.47;97069.53;4931248;28;20041;-61
2021/11/18 01:11:39;;;;;;;13.23;10.05;;;6.20;81.90;;;4.33;94.29;97064.22;4964673;28;20086;-61
2021/11/18 01:14:07;;;;;;;13.40;10.25;;;6.40;82.00;;;4.34;93.41;97062.44;4927938;28;20079;-61
2021/11/18 01:16:34;;;;;;;13.80;9.73;;;6.30;81.60;;;4.34;93.99;97065.03;4954713;28;20122;-61
2021/11/18 01:19:00;;;;;;;13.57;10.15;;;6.30;81.50;;;4.33;94.23;97055.56;4916138;28;20503;-61
2021/11/18 01:21:26;;;;;;;15.07;10.40;;;6.30;81.40;;;4.32;93.84;97061.72;4950878;28;20058;-61
2021/11/18 01:23:52;;;;;;;12.75;9.50;;;6.30;81.50;;;4.32;93.64;97064.34;4945407;28;20035;-62
2021/11/18 01:26:18;;;;;;;13.35;10.07;;;6.30;81.40;;;4.33;93.21;97058.19;4934117;28;20043;-61
2021/11/18 01:28:44;;;;;;;12.98;9.52;;;6.20;81.40;;;4.33;93.42;97055.56;4899700;28;20539;-61
2021/11/18 01:31:11;;;;;;;12.73;9.55;;;6.20;81.50;;;4.29;93.02;97053.19;4916443;29;20090;-61
2021/11/18 01:33:37;;;;;;;14.55;9.65;;;6.20;81.10;;;4.29;92.73;97063.59;4933898;28;20054;-61
2021/11/18 01:36:03;;;;;;;14.02;10.35;;;6.20;81.40;;;4.30;93.77;97064.47;4919193;28;20587;-61
2021/11/18 01:38:31;;;;;;;14.75;9.63;;;6.20;81.30;;;4.29;93.43;97068.81;4934635;28;20120;-62
2021/11/18 01:40:58;;;;;;;12.23;9.70;;;6.30;81.50;;;4.29;92.97;97068.81;4932012;28;20027;-62
2021/11/18 01:43:27;;;;;;;13.35;9.82;;;6.30;81.40;;;4.33;93.45;97081.63;4902728;29;20114;-62
2021/11/18 01:45:53;;;;;;;13.30;10.05;;;6.20;81.50;;;4.33;93.59;97074.63;4933312;28;20035;-62
2021/11/18 01:48:19;;;;;;;12.90;9.85;;;6.30;81.20;;;4.33;92.99;97073.81;4919251;29;20131;-61
2021/11/18 01:50:48;;;;;;;13.13;10.70;;;6.20;81.40;;;4.33;93.23;97074.63;4914860;28;20433;-62
2021/11/18 01:53:20;;;;;;;13.50;10.70;;;6.20;81.20;;;4.34;93.32;97070.25;4915644;29;20434;-61
2021/11/18 01:55:47;;;;;;;14.95;10.82;;;6.20;81.00;;;4.33;93.02;97079.84;4934884;28;20047;-61
2021/11/18 01:58:14;;;;;;;15.15;10.32;;;6.30;81.20;;;4.35;93.34;97077.09;4918146;29;20137;-62
2021/11/18 02:00:52;;;;;;;15.07;9.90;;;6.40;81.20;;;4.36;93.27;97073.53;4918100;29;20090;-62
2021/11/18 02:03:18;;;;;;;13.65;10.98;;;6.30;80.80;;;4.36;93.00;97070.94;4934716;28;20126;-62
2021/11/18 02:05:58;;;;;;;12.63;10.23;;;6.30;81.00;;;4.35;92.55;97071.91;4949209;28;20162;-62
2021/11/18 02:08:23;;;;;;;13.68;9.95;;;6.30;81.00;;;4.36;93.18;97079.56;4936024;28;20482;-62
2021/11/18 02:10:56;;;;;;;14.85;9.85;;;6.30;81.20;;;4.38;92.42;97076.84;4943154;28;20043;-61
2021/11/18 02:13:22;;;;;;;12.55;9.30;;;6.30;81.00;;;4.35;93.03;97067.50;4949703;28;20049;-62
2021/11/18 02:15:56;;;;;;;11.63;9.13;;;6.20;80.70;;;4.36;91.70;97068.34;4934105;28;20505;-62
2021/11/18 02:18:28;;;;;;;13.00;9.43;;;6.20;80.90;;;4.35;92.85;97066.69;4915099;29;20031;-62
2021/11/18 02:20:59;;;;;;;12.55;9.82;;;6.30;81.10;;;4.35;91.96;97061.47;4964563;28;20024;-62
2021/11/18 02:23:31;;;;;;;11.00;8.60;;;6.30;80.90;;;4.35;92.35;97057.09;4931777;28;20035;-62
2021/11/18 02:25:57;;;;;;;12.50;8.93;;;6.30;80.60;;;4.35;92.41;97066.69;4914222;29;20401;-62
2021/11/18 02:28:27;;;;;;;12.35;8.95;;;6.40;80.60;;;4.35;92.53;97071.91;4946966;28;20036;-62
2021/11/18 02:30:54;;;;;;;12.50;9.52;;;6.40;80.70;;;4.34;92.85;97075.44;4929721;28;20065;-61
2021/11/18 02:33:20;;;;;;;11.52;8.82;;;6.30;80.80;;;4.33;92.44;97074.63;4946515;28;20091;-61
2021/11/18 02:35:47;;;;;;;11.23;8.85;;;6.30;81.10;;;4.34;93.14;97070.25;4945761;28;20945;-61
2021/11/18 02:38:13;;;;;;;12.30;8.70;;;6.40;81.20;;;4.34;92.53;97076.28;4929989;28;20197;-61
2021/11/18 02:40:41;;;;;;;11.35;8.70;;;6.30;81.10;;;4.34;92.87;97072.84;4916354;28;20043;-61
2021/11/18 02:43:07;;;;;;;11.13;8.77;;;6.30;81.10;;;4.35;93.17;97066.69;4917791;28;20135;-61
2021/11/18 02:45:35;;;;;;;10.68;8.68;;;6.40;81.00;;;4.34;92.75;97065.03;4918349;29;20031;-62
2021/11/18 02:48:00;;;;;;;11.35;8.27;;;6.30;81.10;;;4.33;93.37;97069.41;4933799;28;20023;-61
2021/11/18 02:50:34;;;;;;;10.75;8.50;;;6.40;81.00;;;4.32;92.73;97069.53;4939088;28;20036;-61
2021/11/18 02:53:00;;;;;;;12.45;9.35;;;6.30;80.80;;;4.30;93.18;97080.91;4930515;28;20070;-61
2021/11/18 02:55:32;;;;;;;11.55;8.43;;;6.30;81.40;;;4.32;93.43;97077.34;4923808;28;20107;-61
2021/11/18 02:57:58;;;;;;;11.48;8.77;;;6.30;81.50;;;4.32;93.17;97077.34;4946428;28;20058;-61
2021/11/18 03:00:43;;;;;;;11.23;9.07;;;6.30;81.60;;;4.32;93.71;97078.19;4930140;28;20538;-61
2021/11/18 03:03:08;;;;;;;10.77;9.13;;;6.30;81.70;;;4.32;92.82;97077.34;4945709;28;20059;-61
2021/11/18 03:05:34;;;;;;;11.57;9.02;;;6.30;81.90;;;4.32;93.33;97080.78;4964036;28;20047;-62
2021/11/18 03:08:00;;;;;;;11.73;9.30;;;6.40;81.80;;;4.32;93.84;97083.38;4946781;28;20103;-61
2021/11/18 03:10:27;;;;;;;10.15;7.40;;;6.40;81.70;;;4.32;94.02;97095.59;4949564;28;20106;-62
2021/11/18 03:12:52;;;;;;;12.95;8.48;;;6.40;81.80;;;4.31;94.21;97089.56;4933662;28;20073;-62
2021/11/18 03:15:18;;;;;;;11.98;9.10;;;6.30;81.70;;;4.32;93.37;97082.56;4937208;28;20023;-61
2021/11/18 03:17:44;;;;;;;11.50;8.80;;;6.40;81.70;;;4.35;94.43;97092.72;4935605;28;20045;-62
2021/11/18 03:20:13;;;;;;;12.68;9.35;;;6.40;81.50;;;4.34;93.54;97096.28;4934510;28;20078;-61
2021/11/18 03:22:40;;;;;;;14.38;9.35;;;6.40;81.80;;;4.35;93.93;97108.34;4953031;28;20499;-62
2021/11/18 03:25:06;;;;;;;11.20;8.88;;;6.30;81.70;;;4.35;94.32;97097.94;4937219;28;20483;-62
2021/11/18 03:27:32;;;;;;;11.10;8.93;;;6.40;81.80;;;4.36;94.00;97099.59;4937292;28;20043;-61
2021/11/18 03:29:58;;;;;;;12.50;9.48;;;6.30;81.70;;;4.35;92.93;97098.75;4921382;29;20039;-61
2021/11/18 03:32:24;;;;;;;11.38;9.23;;;6.30;81.60;;;4.35;92.98;97087.53;4952642;28;20062;-62
2021/11/18 03:34:49;;;;;;;13.52;9.27;;;6.30;81.70;;;4.34;93.25;97098.91;4966491;28;20037;-62
2021/11/18 03:37:15;;;;;;;12.68;9.27;;;6.30;81.40;;;4.36;93.77;97104.81;4935082;28;20035;-61
2021/11/18 03:39:41;;;;;;;13.93;9.90;;;6.40;81.30;;;4.37;94.12;97111.66;4917168;29;20067;-61
2021/11/18 03:42:08;;;;;;;12.52;9.93;;;6.30;81.40;;;4.35;93.32;97114.41;4953029;28;20419;-61
2021/11/18 03:44:34;;;;;;;12.27;9.57;;;6.40;81.90;;;4.36;93.41;97120.44;4920413;29;20038;-61
2021/11/18 03:47:05;;;;;;;12.05;8.95;;;6.40;81.70;;;4.36;93.93;97115.22;4928986;28;20521;-61
2021/11/18 03:49:31;;;;;;;13.85;9.57;;;6.30;81.70;;;4.35;93.52;97118.78;4937609;28;20054;-62
2021/11/18 03:51:59;;;;;;;12.18;9.48;;;6.30;81.90;;;4.33;94.28;97120.69;4910395;29;20041;-61
2021/11/18 03:54:26;;;;;;;13.00;10.02;;;6.30;82.20;;;4.34;93.95;97106.72;4940428;28;20032;-61
2021/11/18 03:56:52;;;;;;;11.70;9.38;;;6.30;82.10;;;4.35;93.42;97113.56;4952042;28;20027;-61
2021/11/18 03:59:22;;;;;;;10.98;9.60;;;6.30;82.00;;;4.34;93.73;97109.31;4936502;28;20062;-61
2021/11/18 04:01:48;;;;;;;12.98;8.93;;;6.30;81.80;;;4.34;94.26;97112.75;4937062;28;20062;-61
2021/11/18 04:04:17;;;;;;;12.23;8.82;;;6.30;82.20;;;4.35;94.31;97114.41;4936150;28;20035;-61
2021/11/18 04:06:43;;;;;;;11.45;8.77;;;6.40;82.00;;;4.35;94.17;97113.56;4922690;28;20036;-66
2021/11/18 04:09:10;;;;;;;13.93;10.20;;;6.30;81.90;;;4.34;93.60;97112.75;4917474;29;20051;-62
2021/11/18 04:11:36;;;;;;;12.20;9.85;;;6.40;81.90;;;4.36;93.71;97110.00;4905558;29;20400;-61
2021/11/18 04:14:02;;;;;;;14.20;10.38;;;6.40;82.00;;;4.35;94.66;97108.34;4968258;28;20502;-61
2021/11/18 04:16:27;;;;;;;11.52;9.73;;;6.40;81.80;;;4.34;93.80;97106.72;4936079;28;20042;-62
2021/11/18 04:18:53;;;;;;;13.30;10.05;;;6.30;82.00;;;4.34;93.70;97106.72;4920671;28;20676;-62
2021/11/18 04:21:19;;;;;;;15.00;10.45;;;6.40;82.20;;;4.34;94.65;97109.31;4935494;28;20122;-62
2021/11/18 04:23:45;;;;;;;13.98;10.70;;;6.40;82.30;;;4.34;94.20;97106.72;4901032;29;20070;-61
2021/11/18 04:26:11;;;;;;;13.73;10.50;;;6.40;82.10;;;4.35;94.78;97113.56;4918535;28;20241;-62
2021/11/18 04:28:37;;;;;;;13.05;10.23;;;6.40;82.40;;;4.36;94.63;97120.44;4935999;28;20054;-61
2021/11/18 04:31:12;;;;;;;13.73;10.98;;;6.40;82.20;;;4.36;94.38;97120.44;4946075;28;20119;-61
2021/11/18 04:33:37;;;;;;;15.30;11.18;;;6.40;82.20;;;4.35;95.18;97118.78;4916864;29;20036;-62
2021/11/18 04:36:05;;;;;;;13.82;10.60;;;6.40;82.40;;;4.34;95.05;97117.94;4919739;28;20059;-62
2021/11/18 04:38:31;;;;;;;13.18;10.50;;;6.40;82.30;;;4.34;94.39;97124.94;4957430;28;20036;-68
2021/11/18 04:40:57;;;;;;;11.60;9.63;;;6.30;82.10;;;4.33;94.95;97136.31;4951379;28;20126;-66
2021/11/18 04:43:23;;;;;;;12.90;10.27;;;6.30;82.60;;;4.33;94.92;97144.94;4904027;29;20114;-66
2021/11/18 04:45:49;;;;;;;12.98;10.35;;;6.40;82.60;;;4.33;95.21;97144.94;4934457;29;20036;-68
2021/11/18 04:48:15;;;;;;;12.00;10.25;;;6.30;82.50;;;4.33;94.84;97144.13;4917130;29;20035;-61
2021/11/18 04:50:40;;;;;;;15.80;10.38;;;6.30;82.70;;;4.35;95.26;97144.81;4949723;28;20165;-61
2021/11/18 04:53:06;;;;;;;12.18;10.43;;;6.40;83.00;;;4.36;95.09;97138.66;4919284;28;20039;-61
2021/11/18 04:55:32;;;;;;;13.27;10.50;;;6.40;82.80;;;4.35;95.09;97145.66;4919783;29;20406;-61
2021/11/18 04:57:58;;;;;;;17.60;12.40;;;6.40;82.70;;;4.34;95.44;97158.81;4935483;28;20149;-61
2021/11/18 05:00:31;;;;;;;16.77;12.70;;;6.40;82.70;;;4.34;95.50;97169.22;4935231;28;20039;-62
2021/11/18 05:02:57;;;;;;;17.40;12.57;;;6.30;82.70;;;4.35;95.49;97176.09;4937808;28;20042;-62
2021/11/18 05:05:23;;;;;;;18.73;13.88;;;6.40;83.00;;;4.35;95.34;97176.09;4917557;29;20030;-62
2021/11/18 05:07:49;;;;;;;17.25;13.63;;;6.50;83.00;;;4.35;95.79;97158.66;4919657;29;20467;-62
2021/11/18 05:10:15;;;;;;;16.73;11.80;;;6.50;82.80;;;4.33;95.16;97149.34;4931163;28;20031;-62
2021/11/18 05:12:40;;;;;;;16.35;12.15;;;6.40;82.60;;;4.32;94.97;97147.69;4931626;28;20503;-62
2021/11/18 05:15:09;;;;;;;14.95;11.80;;;6.30;82.80;;;4.30;95.40;97153.00;4966254;28;20036;-62
2021/11/18 05:17:34;;;;;;;15.10;11.75;;;6.30;83.20;;;4.30;95.39;97169.47;4951258;28;20039;-61
2021/11/18 05:20:00;;;;;;;14.88;11.30;;;6.20;83.20;;;4.28;95.37;97166.13;4952647;28;20039;-61
2021/11/18 05:22:26;;;;;;;14.57;11.55;;;6.20;83.10;;;4.26;95.37;97160.22;4950947;28;20039;-62
2021/11/18 05:24:52;;;;;;;15.52;12.48;;;6.20;83.40;;;4.22;95.78;97166.63;4950411;28;20035;-62
2021/11/18 05:27:20;;;;;;;15.27;12.23;;;6.10;83.70;;;4.22;96.14;97158.81;4926924;28;20059;-61
2021/11/18 05:29:46;;;;;;;15.50;12.25;;;6.10;83.70;;;4.21;96.32;97170.19;4930058;28;20121;-62
2021/11/18 05:32:12;;;;;;;15.13;11.23;;;6.20;83.80;;;4.22;97.03;97182.25;4944803;28;20043;-62
2021/11/18 05:34:39;;;;;;;16.08;12.30;;;6.30;83.90;;;4.23;97.16;97188.28;4928095;28;20043;-62
2021/11/18 05:37:05;;;;;;;18.17;14.18;;;6.30;84.00;;;4.25;96.90;97196.81;4931609;28;20173;-62
2021/11/18 05:39:31;;;;;;;23.73;17.13;;;6.30;84.00;;;4.26;97.03;97199.28;4946229;28;20031;-62
2021/11/18 05:41:57;;;;;;;21.90;16.98;;;6.40;84.10;;;4.26;96.47;97199.28;4932353;28;20443;-65
2021/11/18 05:44:23;;;;;;;22.13;16.65;;;6.30;83.90;;;4.26;97.30;97188.88;4917320;29;20063;-64
2021/11/18 05:46:48;;;;;;;18.85;14.98;;;6.30;84.20;;;4.26;97.67;97168.03;4934010;28;20522;-65
2021/11/18 05:49:14;;;;;;;18.27;12.38;;;6.30;84.10;;;4.25;97.01;97171.59;4934762;28;20459;-66
2021/11/18 05:51:40;;;;;;;16.17;12.48;;;6.20;84.00;;;4.23;96.79;97183.91;4934017;28;20473;-65
2021/11/18 05:54:08;;;;;;;17.80;13.15;;;6.10;84.30;;;4.23;96.85;97196.94;4945086;28;20561;-66
2021/11/18 05:56:34;;;;;;;19.02;13.38;;;6.20;84.20;;;4.23;97.29;97199.53;4901010;29;20455;-66
2021/11/18 05:59:00;;;;;;;18.35;14.30;;;6.20;84.40;;;4.23;97.70;97199.53;4913116;28;20028;-62
2021/11/18 06:01:28;;;;;;;19.50;14.57;;;6.20;84.40;;;4.24;97.02;97200.38;4960910;28;20036;-72
2021/11/18 06:03:57;;;;;;;18.65;13.85;;;6.20;84.30;;;4.22;97.08;97192.69;4947116;28;20434;-63
2021/11/18 06:06:23;;;;;;;17.45;14.13;;;6.20;84.50;;;4.23;96.96;97198.72;4943667;28;20093;-64
2021/11/18 06:08:49;;;;;;;20.15;15.82;;;6.10;84.30;;;4.23;96.63;97188.28;4927172;28;20130;-63
2021/11/18 06:11:15;;;;;;;18.70;14.02;;;6.20;84.40;;;4.22;96.63;97197.88;4952963;28;21947;-63
2021/11/18 06:13:41;;;;;;;20.88;16.25;;;6.10;84.20;;;4.19;97.41;97198.13;4921297;28;20037;-64
2021/11/18 06:16:07;;;;;;;16.95;14.00;;;6.10;84.50;;;4.15;96.98;97212.34;4928607;28;20483;-65
2021/11/18 06:18:33;;;;;;;20.77;16.85;;;5.90;84.60;;;4.13;97.47;97213.44;4948848;28;20059;-64
2021/11/18 06:20:59;;;;;;;20.33;15.23;;;6.10;84.80;;;4.13;97.78;97218.63;4929649;28;20459;-67
2021/11/18 06:23:24;;;;;;;21.88;16.35;;;6.10;84.80;;;4.16;97.39;97223.59;4936510;28;20337;-69
2021/11/18 06:25:50;;;;;;;18.42;14.60;;;6.10;84.90;;;4.18;98.20;97230.34;4928899;28;20043;-68
2021/11/18 06:28:16;;;;;;;18.77;14.52;;;6.20;84.70;;;4.19;97.86;97226.78;4941550;28;20142;-65
2021/11/18 06:30:53;;;;;;;17.48;13.20;;;6.20;84.20;;;4.21;97.75;97219.66;4941502;28;20184;-66
2021/11/18 06:33:20;;;;;;;19.27;14.35;;;6.30;84.20;;;4.20;97.89;97225.84;4939608;28;21001;-67
2021/11/18 06:35:46;;;;;;;19.88;14.82;;;6.10;83.90;;;4.19;97.94;97229.38;4930916;29;20082;-69
2021/11/18 06:38:12;;;;;;;18.85;14.30;;;6.20;84.00;;;4.21;96.89;97230.09;4931555;28;20043;-68
2021/11/18 06:40:37;;;;;;;17.90;14.23;;;6.20;83.90;;;4.23;97.70;97241.22;4916196;28;20227;-62
2021/11/18 06:43:04;;;;;;;16.20;13.77;;;6.30;83.80;;;4.24;97.48;97244.63;4937905;28;21889;-66
2021/11/18 06:45:36;;;;;;;17.60;14.10;;;6.30;83.80;;;4.26;97.17;97246.16;4931171;28;20046;-65
2021/11/18 06:48:04;;;;;;;18.00;14.25;;;6.30;83.70;;;4.27;97.14;97250.44;4914143;29;20039;-65
2021/11/18 06:50:29;;;;;;;16.40;13.60;;;6.40;83.80;;;4.31;97.10;97256.25;4900541;29;20027;-66
2021/11/18 06:52:55;;;;;;;17.77;14.43;;;6.40;83.70;;;4.32;97.11;97257.06;4945347;28;20039;-67
2021/11/18 06:55:24;;;;;;;19.25;13.85;;;6.30;83.60;;;4.32;97.74;97255.31;4948054;28;20039;-66
2021/11/18 06:57:51;;;;;;;20.10;14.48;;;6.30;83.70;;;4.34;97.48;97257.78;4946080;28;20035;-64
2021/11/18 07:00:17;;;;;;;20.55;15.45;;;6.40;83.60;;;4.35;97.53;97264.66;4933973;28;20027;-65
2021/11/18 07:02:43;;;;;;;22.05;17.23;;;6.40;83.60;;;4.38;97.51;97256.59;4916406;28;20031;-67
2021/11/18 07:05:09;;;;;;;21.77;17.15;;;6.50;83.80;;;4.39;96.85;97253.84;4931833;28;20068;-67
2021/11/18 07:07:35;;;;;;;20.92;16.13;;;6.40;83.80;;;4.39;97.56;97260.84;4931180;28;20065;-64
2021/11/18 07:10:02;;;;;;;22.80;16.40;;;6.40;83.50;;;4.39;97.74;97260.84;4949111;28;20134;-66
2021/11/18 07:12:28;;;;;;;19.45;15.10;;;6.40;83.30;;;4.39;97.78;97263.44;4939289;28;20115;-64
2021/11/18 07:14:53;;;;;;;17.52;15.40;;;6.40;83.50;;;4.41;97.40;97264.16;4916446;28;20051;-66
2021/11/18 07:17:19;;;;;;;19.08;14.43;;;6.40;83.50;;;4.44;97.03;97271.72;4919514;29;20031;-66
2021/11/18 07:19:45;;;;;;;16.50;13.27;;;6.50;83.30;;;4.47;97.75;97284.50;4900118;29;20039;-62
2021/11/18 07:22:11;;;;;;;18.10;13.35;;;6.60;83.50;;;4.50;97.42;97279.03;4928596;28;20526;-63
2021/11/18 07:24:37;;;;;;;15.88;12.93;;;6.60;83.30;;;4.52;97.14;97275.34;4950759;28;20097;-66
2021/11/18 07:27:03;;;;;;;15.35;13.20;;;6.60;82.90;;;4.56;96.68;97283.78;4947716;28;20058;-66
2021/11/18 07:29:29;;;;;;;17.90;13.95;;;6.70;82.70;;;4.60;96.92;97295.59;4931738;28;20214;-65
2021/11/18 07:31:55;;;;;;;15.88;12.95;;;6.70;82.60;;;4.62;97.01;97298.91;4917955;29;20407;-67
2021/11/18 07:34:21;;;;;;;17.17;13.88;;;6.80;82.60;;;4.66;96.68;97299.50;4917524;29;20046;-67
2021/11/18 07:36:47;;;;;;;18.15;14.70;;;6.80;82.50;;;4.67;97.07;97294.16;4911226;28;20047;-66
2021/11/18 07:39:13;;;;;;;18.90;13.68;;;6.80;82.80;;;4.72;96.64;97301.59;4940686;28;20033;-64
2021/11/18 07:41:39;;;;;;;18.60;14.73;;;6.80;82.80;;;4.74;96.41;97304.91;4932249;28;20051;-63
2021/11/18 07:44:07;;;;;;;18.52;13.80;;;6.80;82.50;;;4.78;96.97;97298.53;4932083;28;20027;-62
2021/11/18 07:46:32;;;;;;;17.85;13.95;;;6.90;82.30;;;4.81;96.65;97293.88;4949409;28;20038;-64
2021/11/18 07:48:58;;;;;;;16.85;13.13;;;7.00;82.10;;;4.84;96.00;97298.84;4949744;28;20034;-63
2021/11/18 07:51:25;;;;;;;16.52;13.77;;;7.00;81.80;;;4.88;95.74;97299.44;4932343;28;20039;-65
2021/11/18 07:53:51;;;;;;;15.82;13.68;;;7.00;81.50;;;4.89;95.65;97280.22;4914764;28;20146;-64
2021/11/18 07:56:18;;;;;;;14.75;12.65;;;7.00;81.30;;;4.87;94.73;97287.34;4916847;28;20032;-65
2021/11/18 07:58:43;;;;;;;15.77;12.60;;;6.90;81.30;;;4.85;95.17;97290.06;4950992;28;20028;-63
2021/11/18 08:01:09;;;;;;;17.95;13.30;;;6.90;81.40;;;4.85;94.89;97295.28;4925538;28;20097;-63
2021/11/18 08:03:35;;;;;;;15.13;13.50;;;6.90;81.50;;;4.84;95.43;97304.06;4930348;28;20499;-67
2021/11/18 08:06:01;;;;;;;16.70;12.82;;;6.80;81.70;;;4.89;94.88;97298.47;4949229;28;20027;-67
2021/11/18 08:08:27;;;;;;;17.15;13.27;;;7.00;81.70;;;4.94;95.62;97298.91;4925766;28;20032;-64
2021/11/18 08:10:53;;;;;;;15.88;13.65;;;7.10;81.50;;;4.97;95.08;97297.84;4933899;28;20534;-68
2021/11/18 08:13:19;;;;;;;15.55;12.82;;;7.00;81.20;;;5.00;95.28;97306.28;4935513;28;20035;-63
2021/11/18 08:15:45;;;;;;;16.38;13.30;;;7.10;81.30;;;5.05;94.83;97305.88;4933919;28;20328;-68
2021/11/18 08:18:10;;;;;;;16.13;13.13;;;7.20;81.30;;;5.07;94.43;97298.75;4934783;28;20034;-68
2021/11/18 08:20:36;;;;;;;15.15;12.57;;;7.10;81.20;;;5.10;94.50;97299.34;4918207;28;20109;-66
2021/11/18 08:23:02;;;;;;;16.95;12.68;;;7.20;81.20;;;5.13;95.14;97301.69;4918686;28;20122;-68
2021/11/18 08:25:30;;;;;;;14.45;12.95;;;7.20;81.10;;;5.20;94.27;97307.22;4919861;29;20042;-67
2021/11/18 08:27:55;;;;;;;15.65;12.13;;;7.30;80.50;;;5.23;94.54;97305.22;4935637;28;20110;-65
2021/11/18 08:30:25;;;;;;;16.92;13.80;;;7.40;80.30;;;5.29;94.02;97303.88;4917759;29;20456;-65
2021/11/18 08:32:53;;;;;;;13.68;11.77;;;7.50;80.60;;;5.35;93.78;97302.53;4949773;28;20038;-64
2021/11/18 08:35:26;;;;;;;13.20;11.57;;;7.50;79.80;;;5.41;93.77;97297.63;4934185;28;20173;-63
2021/11/18 08:37:52;;;;;;;14.68;13.18;;;7.70;79.00;;;5.48;93.35;97309.22;4931232;28;20047;-63
2021/11/18 08:40:18;;;;;;;16.38;12.75;;;7.80;78.80;;;5.54;93.34;97306.09;4918653;29;20031;-64
2021/11/18 08:42:47;;;;;;;18.10;15.70;;;7.80;78.80;;;5.64;92.73;97313.97;4921918;29;20043;-64
2021/11/18 08:45:12;;;;;;;21.25;16.67;;;8.00;78.80;;;5.72;93.01;97306.34;4902028;29;20082;-63
2021/11/18 08:47:39;;;;;;;13.90;12.13;;;8.10;78.30;;;5.76;92.25;97306.91;4901942;29;20075;-68
2021/11/18 08:50:10;;;;;;;13.32;11.93;;;7.90;77.80;;;5.81;91.56;97315.19;4916858;28;20043;-68
2021/11/18 08:52:37;;;;;;;;;;;8.10;77.80;;;5.86;90.76;97313.00;4914293;28;20028;-67
2021/11/18 08:55:09;;;;;;;13.27;11.70;;;8.10;77.60;;;5.87;91.56;97317.25;4950408;28;19926;-67
2021/11/18 08:57:35;;;;;;;14.45;11.10;;;8.10;77.00;;;5.89;91.37;97318.00;4949964;28;20031;-64
2021/11/18 09:00:00;;;;;;;17.25;12.43;;;8.00;77.50;;;5.93;90.56;97314.19;4949059;28;20039;-64
2021/11/18 09:02:27;;;;;;;13.00;11.13;;;8.10;77.50;;;5.97;90.59;97314.75;4917316;29;20581;-65
2021/11/18 09:04:53;;;;;;;13.93;11.68;;;8.20;77.40;;;6.05;90.63;97320.13;4919504;28;20024;-64
2021/11/18 09:07:19;;;;;;;15.02;11.23;;;8.30;76.50;;;6.10;89.92;97328.41;4902681;29;20028;-64
2021/11/18 09:09:45;;;;;;;13.85;11.20;;;8.30;76.20;;;6.17;89.90;97320.88;4918053;29;20878;-64
2021/11/18 09:12:11;;;;;;;12.63;11.32;;;8.50;76.00;;;6.25;89.69;97324.50;4949481;28;20067;-64
2021/11/18 09:14:36;;;;;;;13.13;11.40;;;8.60;75.70;;;6.35;89.54;97321.94;4940963;28;20027;-64
2021/11/18 09:17:03;;;;;;;13.88;12.18;;;8.70;75.50;;;6.40;89.17;97333.63;4912241;28;20028;-67
2021/11/18 09:19:30;;;;;;;15.77;11.98;;;8.60;75.10;;;6.45;88.64;97341.06;4943368;28;20143;-64
2021/11/18 09:22:00;;;;;;;16.60;11.90;;;8.60;75.60;;;6.49;88.43;97342.44;4928837;28;20039;-63
2021/11/18 09:24:55;;;;;;;16.02;13.30;;;8.70;75.00;;;6.49;86.95;97337.22;4924379;29;20031;-67
2021/11/18 09:27:33;;;;;;;15.40;11.80;;;8.60;75.70;;;6.54;87.82;97344.66;4895751;28;20031;-66
2021/11/18 09:30:01;;;;;;;14.15;11.93;;;8.70;75.60;;;6.58;88.21;97349.50;4915445;28;20185;-64
2021/11/18 09:32:29;;;;;;;14.30;11.10;;;8.80;75.60;;;6.62;87.71;97353.50;4924674;28;20051;-67
2021/11/18 09:34:59;;;;;;;14.32;11.73;;;8.80;75.30;;;6.67;87.87;97350.50;4943506;28;20078;-68
2021/11/18 09:37:25;;;;;;;14.52;11.68;;;8.90;75.10;;;6.70;87.51;97352.81;4931236;28;20035;-68
2021/11/18 09:39:52;;;;;;;12.45;11.15;;;8.90;74.90;;;6.73;87.11;97358.63;4915948;29;20039;-66
2021/11/18 09:42:22;;;;;;;12.70;10.88;;;8.90;75.10;;;6.75;87.39;97359.31;4947744;28;20562;-65
2021/11/18 09:45:18;;;;;;;13.20;11.35;;;8.90;75.10;;;6.83;86.62;97360.44;4911369;28;20145;-65
2021/11/18 09:48:24;;;;;;;12.75;11.32;;;9.10;74.70;;;6.86;86.32;97360.16;4941727;28;20074;-64
2021/11/18 09:51:26;;;;;;;13.32;10.82;;;9.00;74.90;;;6.88;86.26;97358.25;4953536;28;20042;-65
2021/11/18 09:55:02;;;;;;;11.98;10.63;;;9.00;74.50;;;6.89;85.13;97360.72;4917174;29;20066;-65
2021/11/18 09:57:52;;;;;;;13.60;10.90;;;9.00;74.10;;;6.94;84.65;97350.66;4923496;28;20035;-64
2021/11/18 10:00:39;;;;;;;13.93;10.85;;;9.10;73.40;;;6.98;84.73;97359.06;4944212;28;20031;-64
2021/11/18 10:03:36;;;;;;;13.80;11.15;;;9.10;73.90;;;7.03;85.83;97359.50;4947137;28;20122;-65
2021/11/18 10:06:21;;;;;;;12.82;11.20;;;9.20;74.40;;;7.07;85.47;97350.44;4930542;28;20031;-65
2021/11/18 10:09:15;;;;;;;11.82;10.50;;;9.20;73.90;;;7.10;83.96;97354.56;4929678;28;20073;-63
2021/11/18 10:12:27;;;;;;;10.95;9.82;;;9.20;73.40;;;7.07;84.04;97343.41;4912304;29;20036;-62
2021/11/18 10:15:04;;;;;;;12.40;10.20;;;9.10;73.40;;;7.07;85.25;97332.94;4936701;28;20035;-66
2021/11/18 10:17:40;;;;;;;11.85;10.27;;;9.10;74.30;;;7.10;84.89;97342.31;4946980;28;20035;-65
2021/11/18 10:20:19;;;;;;;11.40;10.07;;;9.10;74.10;;;7.11;84.94;97346.56;4914013;29;20458;-63
2021/11/18 10:22:50;;;;;;;10.52;9.38;;;9.20;74.10;;;7.13;84.86;97336.78;4931847;28;20873;-64
2021/11/18 10:25:20;;;;;;;10.60;9.35;;;9.20;73.80;;;7.13;85.37;97336.78;4900466;29;20090;-64